Hillsdale, Oklahoma
Current Conditions -  °F | °C
As of 2:55 AM on Thursday 23 Oct 2014 (Local Time) from KWDG Reporting Station
NA  
Wind Chill: 61°   Ceiling: NA
Heat Index: 61°   Visibility: 10mi
Dew Point: 59°   Wind: 5mph
Humidity: 94%   Direction: 190°S
Pressure: 30.08"   Gusts: NA
Location:  36.56°N, 97.99°W
Report Text: KWDG 230755Z AUTO 19004KT 10SM 16/15 A3008 RMK AO2
Loading
Personal Weather Stations






























Interactive Weather Map
Tropical Storm Tracking
New forecast layout! Learn more

10-Day Weather Forecast

Advertisements
Track Severe Weather on mobile